createdAt,value
2018-06-21T00:01:41.269Z,95558.09
2018-06-21T00:04:07.261Z,95562.64
2018-06-21T00:06:33.244Z,95563.63
2018-06-21T00:08:59.233Z,95565.00
2018-06-21T00:11:25.209Z,95568.17
2018-06-21T00:13:51.208Z,95575.50
2018-06-21T00:16:17.192Z,95569.96
2018-06-21T00:18:43.195Z,95582.01
2018-06-21T00:21:09.179Z,95581.44
2018-06-21T00:23:35.160Z,95576.88
2018-06-21T00:26:01.140Z,95569.16
2018-06-21T00:28:27.122Z,95572.90
2018-06-21T00:30:53.113Z,95568.17
2018-06-21T00:33:19.103Z,95575.50
2018-06-21T00:35:45.081Z,95576.88
2018-06-21T00:38:11.080Z,95572.90
2018-06-21T00:40:37.069Z,95568.98
2018-06-21T00:43:03.080Z,95565.81
2018-06-21T00:45:29.058Z,95562.47
2018-06-21T00:47:55.066Z,95563.05
2018-06-21T00:50:21.053Z,95566.80
2018-06-21T00:52:47.037Z,95564.02
2018-06-21T00:55:13.100Z,95563.05
2018-06-21T00:57:39.088Z,95558.49
2018-06-21T01:00:05.079Z,95558.89
2018-06-21T01:02:31.062Z,95556.70
2018-06-21T01:04:57.037Z,95552.55
2018-06-21T01:07:23.023Z,95556.53
2018-06-21T01:09:49.008Z,95560.69
2018-06-21T01:12:14.991Z,95557.52
2018-06-21T01:14:40.968Z,95558.89
2018-06-21T01:17:06.941Z,95560.28
2018-06-21T01:19:32.933Z,95564.43
2018-06-21T01:21:58.917Z,95563.86
2018-06-21T01:24:24.898Z,95564.43
2018-06-21T01:26:50.878Z,95570.77
2018-06-21T01:29:16.853Z,95562.47
2018-06-21T01:31:42.844Z,95568.17
2018-06-21T01:34:08.821Z,95565.41
2018-06-21T01:36:34.804Z,95570.77
2018-06-21T01:39:00.803Z,95572.53
2018-06-21T01:41:26.790Z,95566.63
2018-06-21T01:43:52.771Z,95566.63
2018-06-21T01:46:18.755Z,95560.69
2018-06-21T01:48:44.731Z,95563.86
2018-06-21T01:51:10.725Z,95561.09
2018-06-21T01:53:36.717Z,95557.72
2018-06-21T01:56:02.716Z,95554.55
2018-06-21T01:58:28.705Z,95549.01
2018-06-21T02:00:54.692Z,95544.28
2018-06-21T02:03:20.713Z,95547.63
2018-06-21T02:05:46.691Z,95542.50
2018-06-21T02:08:12.666Z,95548.03
2018-06-21T02:10:38.647Z,95546.65
2018-06-21T02:13:04.627Z,95550.02
2018-06-21T02:15:30.612Z,95547.25
2018-06-21T02:17:56.581Z,95550.02
2018-06-21T02:20:22.595Z,95548.63
2018-06-21T02:22:48.573Z,95548.03
2018-06-21T02:25:14.561Z,95547.05
2018-06-21T02:27:40.545Z,95552.19
2018-06-21T02:30:06.533Z,95555.36
2018-06-21T02:32:32.522Z,95553.56
2018-06-21T02:34:58.534Z,95550.02
2018-06-21T02:37:24.519Z,95544.48
2018-06-21T02:39:50.497Z,95537.37
2018-06-21T02:42:16.490Z,95543.10
2018-06-21T02:44:42.467Z,95535.00
2018-06-21T02:47:08.464Z,95536.96
2018-06-21T02:49:34.447Z,95541.11
2018-06-21T02:52:00.438Z,95549.42
2018-06-21T02:54:26.417Z,95552.02
2018-06-21T02:56:52.405Z,95546.24
2018-06-21T02:59:18.391Z,95551.20
2018-06-21T03:01:44.370Z,95548.44
2018-06-21T03:04:10.354Z,95546.24
2018-06-21T03:06:36.327Z,95541.52
2018-06-21T03:09:02.323Z,95541.92
2018-06-21T03:11:28.357Z,95539.73
2018-06-21T03:13:54.375Z,95540.54
2018-06-21T03:16:20.355Z,95535.58
2018-06-21T03:18:46.389Z,95542.50
2018-06-21T03:21:12.367Z,95541.92
2018-06-21T03:23:38.360Z,95538.34
2018-06-21T03:26:04.338Z,95537.77
2018-06-21T03:28:30.320Z,95540.54
2018-06-21T03:30:56.320Z,95526.30
2018-06-21T03:33:22.311Z,95535.00
2018-06-21T03:35:48.289Z,95532.23
2018-06-21T03:38:14.273Z,95543.30
2018-06-21T03:40:40.283Z,95546.08
2018-06-21T03:43:06.260Z,95544.28
2018-06-21T03:45:32.243Z,95542.73
2018-06-21T03:47:58.222Z,95543.71
2018-06-21T03:50:24.209Z,95543.71
2018-06-21T03:52:50.189Z,95534.84
2018-06-21T03:55:16.198Z,95534.03
2018-06-21T03:57:42.179Z,95529.47
2018-06-21T04:00:08.159Z,95533.05
2018-06-21T04:02:34.146Z,95527.92
2018-06-21T04:05:00.131Z,95523.16
2018-06-21T04:07:26.120Z,95516.65
2018-06-21T04:09:52.105Z,95524.17
2018-06-21T04:12:18.100Z,95524.41
2018-06-21T04:14:44.086Z,95534.91
2018-06-21T04:17:10.074Z,95531.53
2018-06-21T04:19:36.051Z,95528.77
2018-06-21T04:22:02.032Z,95533.16
2018-06-21T04:24:28.061Z,95534.74
2018-06-21T04:26:54.090Z,95534.16
2018-06-21T04:29:20.071Z,95537.34
2018-06-21T04:31:46.066Z,95529.20
2018-06-21T04:34:12.051Z,95532.58
2018-06-21T04:36:38.029Z,95522.89
2018-06-21T04:39:04.047Z,95523.54
2018-06-21T04:41:30.032Z,95519.55
2018-06-21T04:43:56.018Z,95526.55
2018-06-21T04:46:22.000Z,95521.61
2018-06-21T04:48:47.979Z,95529.72
2018-06-21T04:51:14.049Z,95532.48
2018-06-21T04:53:40.070Z,95527.52
2018-06-21T04:56:06.047Z,95534.84
2018-06-21T04:58:32.029Z,95531.09
2018-06-21T05:00:58.011Z,95537.00
2018-06-21T05:03:24.046Z,95533.83
2018-06-21T05:05:50.001Z,95529.48
2018-06-21T05:08:16.000Z,95530.89
2018-06-21T05:10:41.994Z,95530.48
2018-06-21T05:13:07.986Z,95526.74
2018-06-21T05:15:34.083Z,95531.64
2018-06-21T05:18:00.092Z,95526.91
2018-06-21T05:20:26.135Z,95528.70
2018-06-21T05:22:52.106Z,95525.36
2018-06-21T05:25:18.125Z,95515.34
2018-06-21T05:27:44.116Z,95520.44
2018-06-21T05:30:10.114Z,95521.24
2018-06-21T05:32:36.191Z,95517.05
2018-06-21T05:35:02.209Z,95517.80
2018-06-21T05:37:28.241Z,95519.79
2018-06-21T05:39:54.304Z,95518.00
2018-06-21T05:42:20.326Z,95513.62
2018-06-21T05:44:46.304Z,95508.48
2018-06-21T05:47:12.300Z,95506.29
2018-06-21T05:49:38.381Z,95504.53
2018-06-21T05:52:04.407Z,95504.53
2018-06-21T05:54:30.421Z,95504.70
2018-06-21T05:56:56.408Z,95510.23
2018-06-21T05:59:22.447Z,95512.43
2018-06-21T06:01:48.447Z,95513.41
2018-06-21T06:04:14.437Z,95516.58
2018-06-21T06:06:40.445Z,95510.41
2018-06-21T06:09:06.444Z,95513.17
2018-06-21T06:11:32.433Z,95507.64
2018-06-21T06:13:58.421Z,95512.80
2018-06-21T06:16:24.401Z,95505.88
2018-06-21T06:18:50.391Z,95510.03
2018-06-21T06:21:16.411Z,95503.48
2018-06-21T06:23:42.389Z,95500.92
2018-06-21T06:26:08.410Z,95499.13
2018-06-21T06:28:34.404Z,95498.16
2018-06-21T06:31:00.346Z,95490.43
2018-06-21T06:33:26.334Z,95491.81
2018-06-21T06:35:52.322Z,95494.98
2018-06-21T06:38:18.332Z,95496.37
2018-06-21T06:40:44.292Z,95488.23
2018-06-21T06:43:10.274Z,95489.45
2018-06-21T06:45:36.266Z,95482.13
2018-06-21T06:48:02.245Z,95482.53
2018-06-21T06:50:28.235Z,95484.48
2018-06-21T06:52:54.218Z,95480.34
2018-06-21T06:55:20.239Z,95481.15
2018-06-21T06:57:46.191Z,95481.95
2018-06-21T07:00:12.178Z,95479.59
2018-06-21T07:02:38.159Z,95480.17
2018-06-21T07:05:04.150Z,95482.53
2018-06-21T07:07:30.132Z,95474.23
2018-06-21T07:09:56.144Z,95469.27
2018-06-21T07:12:22.120Z,95469.47
2018-06-21T07:14:48.120Z,95470.08
2018-06-21T07:17:14.098Z,95466.09
2018-06-21T07:19:40.095Z,95466.91
2018-06-21T07:22:06.083Z,95472.27
2018-06-21T07:24:32.062Z,95471.46
2018-06-21T07:26:58.048Z,95462.34
2018-06-21T07:29:24.029Z,95457.05
2018-06-21T07:31:50.014Z,95459.41
2018-06-21T07:34:16.000Z,95453.30
2018-06-21T07:36:41.989Z,95449.52
2018-06-21T07:39:07.969Z,95447.77
2018-06-21T07:41:33.955Z,95446.19
2018-06-21T07:43:59.942Z,95442.23
2018-06-21T07:46:25.927Z,95440.65
2018-06-21T07:48:51.946Z,95441.63
2018-06-21T07:51:17.926Z,95439.47
2018-06-21T07:53:43.984Z,95435.69
2018-06-21T07:56:09.934Z,95439.67
2018-06-21T07:58:35.961Z,95436.73
2018-06-21T08:01:01.896Z,95433.16
2018-06-21T08:03:27.889Z,95434.94
2018-06-21T08:05:53.939Z,95436.91
2018-06-21T08:08:19.885Z,95432.34
2018-06-21T08:10:45.868Z,95426.81
2018-06-21T08:13:11.850Z,95426.00
2018-06-21T08:15:37.834Z,95428.20
2018-06-21T08:18:03.820Z,95423.88
2018-06-21T08:20:29.807Z,95421.28
2018-06-21T08:22:55.778Z,95426.23
2018-06-21T08:25:21.757Z,95419.72
2018-06-21T08:27:47.765Z,95413.98
2018-06-21T08:30:13.748Z,95414.97
2018-06-21T08:32:39.729Z,95415.57
2018-06-21T08:35:05.726Z,95410.81
2018-06-21T08:37:31.715Z,95407.67
2018-06-21T08:39:57.698Z,95408.45
2018-06-21T08:42:23.688Z,95408.45
2018-06-21T08:44:49.679Z,95407.88
2018-06-21T08:47:15.676Z,95402.75
2018-06-21T08:49:41.660Z,95399.41
2018-06-21T08:52:07.655Z,95400.96
2018-06-21T08:54:33.627Z,95395.02
2018-06-21T08:56:59.603Z,95392.08
2018-06-21T08:59:25.638Z,95391.67
2018-06-21T09:01:51.585Z,95390.30
2018-06-21T09:04:17.561Z,95397.24
2018-06-21T09:06:43.545Z,95388.53
2018-06-21T09:09:09.535Z,95387.73
2018-06-21T09:11:35.523Z,95382.80
2018-06-21T09:14:01.540Z,95382.80
2018-06-21T09:16:27.553Z,95374.30
2018-06-21T09:18:53.537Z,95370.14
2018-06-21T09:21:19.529Z,95369.36
2018-06-21T09:23:45.548Z,95355.33
2018-06-21T09:26:11.508Z,95356.30
2018-06-21T09:28:37.493Z,95351.17
2018-06-21T09:31:03.571Z,95351.00
2018-06-21T09:33:29.557Z,95344.66
2018-06-21T09:35:55.535Z,95340.52
2018-06-21T09:38:21.532Z,95343.28
2018-06-21T09:40:47.527Z,95332.78
2018-06-21T09:43:13.550Z,95334.00
2018-06-21T09:45:39.497Z,95330.25
2018-06-21T09:48:05.492Z,95328.26
2018-06-21T09:50:31.476Z,95324.31
2018-06-21T09:52:57.460Z,95329.44
2018-06-21T09:55:23.442Z,95320.77
2018-06-21T09:57:49.532Z,95317.80
2018-06-21T10:00:15.415Z,95311.66
2018-06-21T10:02:41.434Z,95314.66
2018-06-21T10:05:07.418Z,95310.27
2018-06-21T10:07:33.404Z,95304.56
2018-06-21T10:09:59.430Z,95308.11
2018-06-21T10:12:25.417Z,95307.50
2018-06-21T10:14:51.412Z,95304.36
2018-06-21T10:17:17.504Z,95302.57
2018-06-21T10:19:43.499Z,95304.73
2018-06-21T10:22:09.474Z,95301.19
2018-06-21T10:24:35.466Z,95298.02
2018-06-21T10:27:01.463Z,95292.28
2018-06-21T10:29:27.469Z,95284.78
2018-06-21T10:31:53.463Z,95283.98
2018-06-21T10:34:19.442Z,95279.25
2018-06-21T10:36:45.431Z,95288.94
2018-06-21T10:39:11.410Z,95295.69
2018-06-21T10:41:37.404Z,95298.85
2018-06-21T10:44:03.398Z,95290.55
2018-06-21T10:46:29.379Z,95281.84
2018-06-21T10:48:55.370Z,95279.66
2018-06-21T10:51:21.354Z,95279.66
2018-06-21T10:53:47.346Z,95269.56
2018-06-21T10:56:13.328Z,95274.92
2018-06-21T10:58:39.346Z,95276.86
2018-06-21T11:01:05.326Z,95295.45
2018-06-21T11:03:31.317Z,95298.22
2018-06-21T11:05:57.308Z,95296.43
2018-06-21T11:08:23.307Z,95291.09
2018-06-21T11:10:49.289Z,95291.27
2018-06-21T11:13:15.269Z,95295.66
2018-06-21T11:15:41.255Z,95296.63
2018-06-21T11:18:07.285Z,95304.94
2018-06-21T11:20:33.273Z,95308.52
2018-06-21T11:22:59.265Z,95311.48
2018-06-21T11:25:25.374Z,95300.41
2018-06-21T11:27:51.330Z,95305.54
2018-06-21T11:30:17.327Z,95298.85
2018-06-21T11:32:43.325Z,95308.71
2018-06-21T11:35:09.307Z,95301.99
2018-06-21T11:37:38.288Z,95289.17
2018-06-21T11:40:04.270Z,95284.20
2018-06-21T11:42:30.259Z,95278.67
2018-06-21T11:44:56.305Z,95274.92
2018-06-21T11:47:22.355Z,95262.47
2018-06-21T11:49:48.354Z,95255.15
2018-06-21T11:52:14.412Z,95245.23
2018-06-21T11:54:40.394Z,95235.55
2018-06-21T11:57:06.435Z,95237.94
2018-06-21T11:59:34.457Z,95239.33
2018-06-21T12:02:00.456Z,95237.73
2018-06-21T12:04:26.464Z,95245.47
2018-06-21T12:06:52.459Z,95252.78
2018-06-21T12:09:18.445Z,95250.63
2018-06-21T12:11:44.433Z,95251.02
2018-06-21T12:14:10.520Z,95246.90
2018-06-21T12:16:36.474Z,95236.81
2018-06-21T12:19:02.498Z,95233.23
2018-06-21T12:21:28.582Z,95238.19
2018-06-21T12:23:54.700Z,95234.05
2018-06-21T12:26:21.119Z,95234.05
2018-06-21T12:28:47.165Z,95231.67
2018-06-21T12:31:13.162Z,95232.66
2018-06-21T12:33:39.146Z,95237.39
2018-06-21T12:36:05.171Z,95239.75
2018-06-21T12:38:31.145Z,95233.23
2018-06-21T12:40:57.302Z,95232.45
2018-06-21T12:43:24.822Z,95240.36
2018-06-21T12:45:51.766Z,95239.95
2018-06-21T12:48:17.790Z,95240.76
2018-06-21T12:50:43.783Z,95231.66
2018-06-21T12:53:09.808Z,95233.61
2018-06-21T12:55:35.799Z,95231.66
2018-06-21T12:58:01.830Z,95232.23
2018-06-21T13:00:27.805Z,95224.73
2018-06-21T13:02:53.822Z,95223.34
2018-06-21T13:05:19.868Z,95217.00
2018-06-21T13:07:45.793Z,95213.84
2018-06-21T13:10:11.771Z,95215.22
2018-06-21T13:12:37.766Z,95217.00
2018-06-21T13:15:03.796Z,95208.13
2018-06-21T13:17:29.823Z,95202.59
2018-06-21T13:19:55.808Z,95199.25
2018-06-21T13:22:21.796Z,95198.44
2018-06-21T13:24:47.784Z,95191.72
2018-06-21T13:27:13.774Z,95186.02
2018-06-21T13:29:39.767Z,95181.28
2018-06-21T13:32:05.761Z,95177.33
2018-06-21T13:34:31.747Z,95174.97
2018-06-21T13:36:57.742Z,95174.39
2018-06-21T13:39:23.747Z,95175.16
2018-06-21T13:41:49.778Z,95179.12
2018-06-21T13:44:15.782Z,95182.08
2018-06-21T13:46:41.851Z,95179.95
2018-06-21T13:49:07.840Z,95182.91
2018-06-21T13:51:33.827Z,95185.10
2018-06-21T13:53:59.845Z,95183.92
2018-06-21T13:56:25.839Z,95188.47
2018-06-21T13:58:51.819Z,95185.70
2018-06-21T14:01:17.798Z,95179.59
2018-06-21T14:03:43.791Z,95176.22
2018-06-21T14:06:09.788Z,95174.05
2018-06-21T14:08:35.950Z,95172.06
2018-06-21T14:11:01.756Z,95175.44
2018-06-21T14:13:27.742Z,95172.49
2018-06-21T14:15:53.721Z,95169.92
2018-06-21T14:18:19.711Z,95164.02
2018-06-21T14:20:45.754Z,95166.20
2018-06-21T14:23:11.675Z,95158.67
2018-06-21T14:25:37.659Z,95153.14
2018-06-21T14:28:03.643Z,95151.60
2018-06-21T14:30:29.869Z,95143.13
2018-06-21T14:32:55.815Z,95153.01
2018-06-21T14:35:21.919Z,95156.18
2018-06-21T14:37:47.858Z,95154.80
2018-06-21T14:40:13.845Z,95158.37
2018-06-21T14:42:39.832Z,95164.50
2018-06-21T14:45:05.866Z,95166.88
2018-06-21T14:47:31.815Z,95173.01
2018-06-21T14:49:57.833Z,95173.99
2018-06-21T14:52:23.821Z,95173.41
2018-06-21T14:54:49.814Z,95171.60
2018-06-21T14:57:15.806Z,95161.91
2018-06-21T14:59:41.798Z,95166.06
2018-06-21T15:02:07.830Z,95171.60
2018-06-21T15:04:33.787Z,95178.13
2018-06-21T15:06:59.810Z,95173.97
2018-06-21T15:09:25.788Z,95172.21
2018-06-21T15:11:51.784Z,95175.95
2018-06-21T15:14:17.779Z,95165.30
2018-06-21T15:16:43.773Z,95167.68
2018-06-21T15:19:09.755Z,95155.39
2018-06-21T15:21:35.742Z,95150.84
2018-06-21T15:24:01.723Z,95145.28
2018-06-21T15:26:27.774Z,95145.51
2018-06-21T15:28:53.780Z,95130.69
2018-06-21T15:31:19.730Z,95133.05
2018-06-21T15:33:45.809Z,95123.36
2018-06-21T15:36:11.801Z,95119.61
2018-06-21T15:38:37.780Z,95116.84
2018-06-21T15:41:03.763Z,95109.12
2018-06-21T15:43:29.796Z,95103.76
2018-06-21T15:45:55.792Z,95098.22
2018-06-21T15:48:21.779Z,95091.91
2018-06-21T15:50:48.054Z,95085.57
2018-06-21T15:53:14.034Z,95084.37
2018-06-21T15:55:40.143Z,95084.78
2018-06-21T15:58:06.157Z,95089.16
2018-06-21T16:00:32.291Z,95093.89
2018-06-21T16:02:58.319Z,95093.69
2018-06-21T16:05:24.267Z,95097.64
2018-06-21T16:07:50.307Z,95085.01
2018-06-21T16:10:16.305Z,95114.83
2018-06-21T16:12:42.294Z,95112.87
2018-06-21T16:15:08.275Z,95119.41
2018-06-21T16:17:34.266Z,95124.54
2018-06-21T16:20:00.277Z,95119.23
2018-06-21T16:22:26.220Z,95129.33
2018-06-21T16:24:52.199Z,95140.59
2018-06-21T16:27:18.187Z,95143.97
2018-06-21T16:29:44.164Z,95165.34
2018-06-21T16:32:10.151Z,95171.47
2018-06-21T16:34:36.136Z,95168.48
2018-06-21T16:37:02.131Z,95171.25
2018-06-21T16:39:28.126Z,95173.23
2018-06-21T16:41:54.104Z,95168.69
2018-06-21T16:44:20.133Z,95172.03
2018-06-21T16:46:46.118Z,95172.43
2018-06-21T16:49:12.099Z,95177.39
2018-06-21T16:51:38.096Z,95173.23
2018-06-21T16:54:04.079Z,95176.78
2018-06-21T16:56:30.064Z,95166.52
2018-06-21T16:58:56.047Z,95175.22
2018-06-21T17:01:22.030Z,95174.41
2018-06-21T17:03:48.081Z,95174.24
2018-06-21T17:06:14.069Z,95170.66
2018-06-21T17:08:40.059Z,95178.59
2018-06-21T17:11:06.051Z,95173.66
2018-06-21T17:13:32.034Z,95166.34
2018-06-21T17:15:58.029Z,95168.30
2018-06-21T17:18:24.044Z,95157.63
2018-06-21T17:20:49.994Z,95163.17
2018-06-21T17:23:15.985Z,95163.36
2018-06-21T17:25:41.982Z,95158.81
2018-06-21T17:28:07.986Z,95156.65
2018-06-21T17:30:33.976Z,95161.44
2018-06-21T17:33:02.629Z,95166.56
2018-06-21T17:35:28.625Z,95170.55
2018-06-21T17:37:54.661Z,95163.80
2018-06-21T17:40:20.646Z,95152.55
2018-06-21T17:42:46.626Z,95152.73
2018-06-21T17:45:12.701Z,95149.17
2018-06-21T17:47:38.671Z,95145.23
2018-06-21T17:50:04.652Z,95148.39
2018-06-21T17:52:30.667Z,95140.49
2018-06-21T17:54:56.627Z,95133.17
2018-06-21T17:57:22.617Z,95139.11
2018-06-21T17:59:48.612Z,95143.63
2018-06-21T18:02:14.597Z,95140.86
2018-06-21T18:04:40.685Z,95141.48
2018-06-21T18:07:06.649Z,95145.63
2018-06-21T18:09:32.639Z,95137.11
2018-06-21T18:11:58.626Z,95135.12
2018-06-21T18:14:24.657Z,95128.03
2018-06-21T18:16:50.595Z,95131.78
2018-06-21T18:19:16.583Z,95136.71
2018-06-21T18:21:42.562Z,95135.73
2018-06-21T18:24:08.599Z,95127.83
2018-06-21T18:26:34.588Z,95134.34
2018-06-21T18:29:00.676Z,95133.36
2018-06-21T18:31:26.586Z,95138.15
2018-06-21T18:33:52.576Z,95131.98
2018-06-21T18:36:18.563Z,95129.44
2018-06-21T18:38:44.542Z,95138.52
2018-06-21T18:41:10.525Z,95139.53
2018-06-21T18:43:36.656Z,95147.03
2018-06-21T18:46:02.673Z,95145.83
2018-06-21T18:48:28.664Z,95144.84
2018-06-21T18:50:54.650Z,95155.52
2018-06-21T18:53:20.639Z,95163.24
2018-06-21T18:55:47.502Z,95164.62
2018-06-21T18:58:13.488Z,95172.55
2018-06-21T19:00:39.475Z,95165.45
2018-06-21T19:03:05.490Z,95166.23
2018-06-21T19:05:31.441Z,95166.63
2018-06-21T19:07:57.420Z,95160.32
2018-06-21T19:10:23.460Z,95167.24
2018-06-21T19:12:49.379Z,95173.36
2018-06-21T19:15:15.367Z,95180.48
2018-06-21T19:17:41.354Z,95180.08
2018-06-21T19:20:07.337Z,95186.42
2018-06-21T19:22:33.328Z,95184.63
2018-06-21T19:24:59.315Z,95181.69
2018-06-21T19:27:25.362Z,95185.64
2018-06-21T19:29:51.312Z,95186.08
2018-06-21T19:32:17.300Z,95188.08
2018-06-21T19:34:43.285Z,95192.81
2018-06-21T19:37:09.307Z,95190.04
2018-06-21T19:39:35.318Z,95198.34
2018-06-21T19:42:01.271Z,95198.75
2018-06-21T19:44:29.466Z,95192.81
2018-06-21T19:46:55.454Z,95195.58
2018-06-21T19:49:21.439Z,95187.05
2018-06-21T19:51:47.472Z,95185.66
2018-06-21T19:54:13.527Z,95191.20
2018-06-21T19:56:39.511Z,95195.58
2018-06-21T19:59:05.706Z,95193.98
2018-06-21T20:01:31.689Z,95187.87
2018-06-21T20:03:57.700Z,95185.70
2018-06-21T20:06:23.719Z,95182.38
2018-06-21T20:08:49.696Z,95185.95
2018-06-21T20:11:15.684Z,95186.55
2018-06-21T20:13:41.675Z,95182.02
2018-06-21T20:16:07.909Z,95181.81
2018-06-21T20:18:33.897Z,95182.80
2018-06-21T20:20:59.866Z,95174.89
2018-06-21T20:23:25.849Z,95175.87
2018-06-21T20:25:51.838Z,95174.67
2018-06-21T20:28:18.264Z,95170.14
2018-06-21T20:30:44.203Z,95166.16
2018-06-21T20:33:10.178Z,95170.89
2018-06-21T20:35:36.170Z,95167.35
2018-06-21T20:38:02.160Z,95169.72
2018-06-21T20:40:28.139Z,95170.30
2018-06-21T20:42:54.131Z,95165.34
2018-06-21T20:45:20.115Z,95162.77
2018-06-21T20:47:46.094Z,95158.22
2018-06-21T20:50:12.083Z,95153.06
2018-06-21T20:52:38.060Z,95158.20
2018-06-21T20:55:04.048Z,95156.98
2018-06-21T20:57:30.025Z,95158.98
2018-06-21T20:59:56.022Z,95161.14
2018-06-21T21:02:22.005Z,95158.34
2018-06-21T21:04:47.995Z,95162.50
2018-06-21T21:07:13.981Z,95164.29
2018-06-21T21:09:39.974Z,95155.78
2018-06-21T21:12:05.962Z,95155.17
2018-06-21T21:14:31.944Z,95151.63
2018-06-21T21:16:57.913Z,95150.83
2018-06-21T21:19:23.899Z,95148.46
2018-06-21T21:21:49.887Z,95146.84
2018-06-21T21:24:15.863Z,95146.84
2018-06-21T21:26:41.849Z,95141.52
2018-06-21T21:29:07.904Z,95137.36
2018-06-21T21:31:33.962Z,95139.73
2018-06-21T21:33:59.962Z,95134.37
2018-06-21T21:36:25.914Z,95138.52
2018-06-21T21:38:51.896Z,95136.16
2018-06-21T21:41:17.877Z,95133.39
2018-06-21T21:43:43.858Z,95130.83
2018-06-21T21:46:09.833Z,95128.64
2018-06-21T21:48:35.823Z,95133.59
2018-06-21T21:51:01.801Z,95135.55
2018-06-21T21:53:27.789Z,95129.21
2018-06-21T21:55:53.859Z,95131.17
2018-06-21T21:58:19.829Z,95128.61
2018-06-21T22:00:45.815Z,95140.49
2018-06-21T22:03:11.798Z,95138.87
2018-06-21T22:05:37.781Z,95132.91
2018-06-21T22:08:03.771Z,95134.95
2018-06-21T22:10:29.750Z,95126.97
2018-06-21T22:12:55.755Z,95126.25
2018-06-21T22:15:21.729Z,95130.14
2018-06-21T22:17:47.710Z,95119.50
2018-06-21T22:20:13.727Z,95124.45
2018-06-21T22:22:39.761Z,95120.05
2018-06-21T22:25:05.703Z,95119.67
2018-06-21T22:27:31.687Z,95116.91
2018-06-21T22:29:57.679Z,95110.77
2018-06-21T22:32:23.664Z,95110.97
2018-06-21T22:34:49.637Z,95105.44
2018-06-21T22:37:15.626Z,95102.84
2018-06-21T22:39:41.610Z,95105.20
2018-06-21T22:42:07.595Z,95098.28
2018-06-21T22:44:33.582Z,95101.05
2018-06-21T22:46:59.559Z,95099.09
2018-06-21T22:49:25.543Z,95103.24
2018-06-21T22:51:51.531Z,95102.44
2018-06-21T22:54:17.531Z,95101.05
2018-06-21T22:56:43.519Z,95104.62
2018-06-21T22:59:09.521Z,95103.42
2018-06-21T23:01:35.503Z,95103.82
2018-06-21T23:04:01.516Z,95110.74
2018-06-21T23:06:27.491Z,95107.39
2018-06-21T23:08:53.465Z,95099.67
2018-06-21T23:11:19.460Z,95101.44
2018-06-21T23:13:45.441Z,95100.86
2018-06-21T23:16:11.430Z,95096.12
2018-06-21T23:18:37.407Z,95093.94
2018-06-21T23:21:03.386Z,95099.06
2018-06-21T23:23:29.366Z,95099.87
2018-06-21T23:25:55.356Z,95099.25
2018-06-21T23:28:21.339Z,95097.86
2018-06-21T23:30:47.325Z,95097.28
2018-06-21T23:33:13.306Z,95093.94
2018-06-21T23:35:39.281Z,95090.59
2018-06-21T23:38:05.277Z,95091.34
2018-06-21T23:40:31.259Z,95102.81
2018-06-21T23:42:57.240Z,95090.16
2018-06-21T23:45:23.230Z,95098.88
2018-06-21T23:47:49.208Z,95096.48
2018-06-21T23:50:15.192Z,95090.94
2018-06-21T23:52:41.166Z,95089.55
2018-06-21T23:55:07.151Z,95091.34
2018-06-21T23:57:33.137Z,95086.79
2018-06-21T23:59:59.115Z,95083.65
